Time;durP1;ratioP1;P1;durP2;ratioP2;P2;SDS_P1;SDS_P2;PMS_P1;PMS_P2;Temp;Humidity;BMP_temperature;BMP_pressure;BME280_temperature;BME280_humidity;BME280_pressure;Samples;Min_cycle;Max_cycle;Signal;HPM_P1;HPM_P2
2022/07/28 00:02:22;;;;;;;9.45;8.05;;;;;;;20.30;72.83;93399.09;4993774;28;20032;-38
2022/07/28 00:04:47;;;;;;;17.67;14.05;;;;;;;20.32;71.81;93399.19;4992979;28;20061;-38
2022/07/28 00:07:13;;;;;;;14.50;11.48;;;;;;;20.22;73.79;93404.97;4992182;28;20018;-38
2022/07/28 00:09:38;;;;;;;13.57;9.40;;;;;;;20.13;73.79;93399.47;4993399;28;20030;-39
2022/07/28 00:12:04;;;;;;;14.43;8.30;;;;;;;19.99;73.53;93401.47;4991988;28;20528;-39
2022/07/28 00:14:30;;;;;;;12.60;8.90;;;;;;;20.10;72.67;93395.06;4993357;28;20029;-38
2022/07/28 00:16:55;;;;;;;12.48;9.48;;;;;;;20.25;72.79;93403.72;4993292;28;20022;-38
2022/07/28 00:19:20;;;;;;;10.65;6.78;;;;;;;20.32;70.24;93410.41;4993483;28;20023;-38
2022/07/28 00:21:46;;;;;;;13.05;8.32;;;;;;;20.23;73.29;93412.03;4993055;28;20408;-38
2022/07/28 00:24:11;;;;;;;9.90;7.30;;;;;;;20.25;73.81;93409.34;4993424;28;20022;-38
2022/07/28 00:26:37;;;;;;;9.27;7.65;;;;;;;20.13;74.39;93407.88;4993069;28;20022;-39
2022/07/28 00:29:03;;;;;;;13.98;7.50;;;;;;;20.10;74.58;93404.22;4992868;28;20077;-38
2022/07/28 00:31:29;;;;;;;10.20;8.32;;;;;;;20.23;74.21;93403.59;4991818;28;20028;-38
2022/07/28 00:33:54;;;;;;;10.73;7.85;;;;;;;20.20;74.23;93402.06;4993228;28;20495;-38
2022/07/28 00:36:20;;;;;;;9.38;7.57;;;;;;;20.29;74.95;93395.53;4992886;28;20030;-39
2022/07/28 00:38:45;;;;;;;10.27;7.78;;;;;;;20.25;75.03;93398.13;4996618;28;20041;-39
2022/07/28 00:41:11;;;;;;;10.23;7.60;;;;;;;20.24;74.71;93401.53;5012301;28;20041;-39
2022/07/28 00:43:42;;;;;;;11.63;7.97;;;;;;;20.39;74.09;93401.00;5007810;28;20109;-39
2022/07/28 00:46:08;;;;;;;10.38;7.32;;;;;;;20.52;73.72;93402.41;4992369;28;20120;-38
2022/07/28 00:48:43;;;;;;;7.63;6.60;;;;;;;20.49;72.92;93409.97;4992596;28;20088;-38
2022/07/28 00:51:09;;;;;;;10.88;7.43;;;;;;;20.50;72.81;93416.34;4992905;28;20050;-38
2022/07/28 00:53:35;;;;;;;12.40;8.25;;;;;;;20.45;72.25;93411.81;4992427;28;20413;-38
2022/07/28 00:56:01;;;;;;;8.98;7.57;;;;;;;20.46;72.06;93414.03;4987333;28;20112;-38
2022/07/28 00:58:27;;;;;;;10.88;8.02;;;;;;;20.46;71.95;93418.91;4978423;28;20449;-39
2022/07/28 01:00:52;;;;;;;8.80;7.43;;;;;;;20.50;71.94;93413.53;5004551;28;20390;-38
2022/07/28 01:03:18;;;;;;;14.20;8.40;;;;;;;20.51;72.68;93401.69;4979632;28;20394;-38
2022/07/28 01:06:03;;;;;;;12.20;8.05;;;;;;;20.40;74.51;93397.59;4979308;28;20113;-38
2022/07/28 01:08:32;;;;;;;8.23;7.38;;;;;;;20.41;73.77;93395.50;5006849;28;20062;-38
2022/07/28 01:11:02;;;;;;;12.48;7.68;;;;;;;20.31;74.46;93400.56;4984427;28;20628;-38
2022/07/28 01:13:38;;;;;;;9.55;6.78;;;;;;;20.35;73.88;93395.16;5004237;28;20038;-38
2022/07/28 01:16:05;;;;;;;9.48;7.50;;;;;;;20.12;75.38;93389.63;4972999;28;20420;-38
2022/07/28 01:19:11;;;;;;;9.52;7.38;;;;;;;20.20;74.79;93390.06;4987365;28;20563;-38
2022/07/28 01:21:40;;;;;;;9.85;7.72;;;;;;;20.11;74.72;93383.28;4983138;28;20044;-38
2022/07/28 01:24:17;;;;;;;9.95;7.28;;;;;;;20.13;75.24;93389.00;4982396;28;20034;-38
2022/07/28 01:27:04;;;;;;;30.38;7.32;;;;;;;20.03;75.27;93387.69;4989239;28;20041;-38
2022/07/28 01:30:06;;;;;;;8.68;7.10;;;;;;;20.00;75.16;93378.41;4981866;28;20038;-37
2022/07/28 01:32:39;;;;;;;9.88;7.78;;;;;;;19.90;75.75;93379.91;4990892;28;20033;-37
2022/07/28 01:35:18;;;;;;;8.70;7.78;;;;;;;19.78;76.88;93385.53;4995306;28;20026;-38
2022/07/28 01:37:47;;;;;;;11.98;7.95;;;;;;;19.87;76.74;93372.72;4990295;28;20050;-39
2022/07/28 01:40:16;;;;;;;17.58;8.10;;;;;;;19.94;76.78;93380.13;5000341;28;20029;-39
2022/07/28 01:42:44;;;;;;;9.18;7.85;;;;;;;20.07;76.00;93376.69;5010853;28;20039;-39
2022/07/28 01:45:11;;;;;;;10.15;7.25;;;;;;;20.17;75.26;93363.25;4972526;28;20033;-44
2022/07/28 01:47:38;;;;;;;12.77;8.23;;;;;;;20.27;74.39;93364.59;4972519;28;20054;-37
2022/07/28 01:50:07;;;;;;;10.07;7.47;;;;;;;20.11;75.11;93358.03;4984086;28;20045;-37
2022/07/28 01:52:33;;;;;;;9.30;8.30;;;;;;;20.03;74.82;93354.06;4980410;28;20076;-37
2022/07/28 01:55:00;;;;;;;13.45;7.97;;;;;;;19.88;75.14;93337.75;5003352;28;20045;-37
2022/07/28 01:57:29;;;;;;;12.27;8.27;;;;;;;20.03;74.62;93348.44;4972105;28;20416;-37
2022/07/28 01:59:56;;;;;;;10.57;8.60;;;;;;;20.10;74.55;93348.16;4972243;28;20428;-37
2022/07/28 02:02:22;;;;;;;12.45;8.93;;;;;;;20.19;74.16;93340.94;4970643;28;20026;-37
2022/07/28 02:04:49;;;;;;;11.63;9.23;;;;;;;20.11;74.93;93344.03;4970613;28;20030;-37
2022/07/28 02:07:15;;;;;;;9.82;8.35;;;;;;;20.14;74.87;93345.59;5003050;28;20082;-37
2022/07/28 02:09:42;;;;;;;25.80;16.92;;;;;;;20.04;74.83;93307.84;5003248;28;20053;-36
2022/07/28 02:12:08;;;;;;;16.50;10.82;;;;;;;20.28;73.91;93332.41;4970678;28;20035;-38
2022/07/28 02:14:35;;;;;;;10.48;8.48;;;;;;;20.31;73.65;93345.19;4971770;28;20420;-37
2022/07/28 02:17:09;;;;;;;11.75;8.70;;;;;;;20.21;73.96;93341.81;4971721;28;20516;-37
2022/07/28 02:19:36;;;;;;;12.10;9.88;;;;;;;20.23;74.20;93341.94;4977157;28;20061;-37
2022/07/28 02:22:02;;;;;;;12.80;9.52;;;;;;;20.12;75.18;93341.97;4991076;28;20022;-38
2022/07/28 02:24:28;;;;;;;12.88;9.77;;;;;;;20.01;76.35;93348.34;4989799;28;20074;-38
2022/07/28 02:27:00;;;;;;;15.30;9.57;;;;;;;19.91;76.56;93342.13;4989767;28;20049;-38
2022/07/28 02:29:26;;;;;;;10.13;8.52;;;;;;;20.06;75.63;93341.59;4991071;28;20030;-39
2022/07/28 02:31:56;;;;;;;12.60;9.32;;;;;;;20.07;75.21;93346.59;4989788;28;20113;-38
2022/07/28 02:34:24;;;;;;;9.55;7.90;;;;;;;20.11;76.53;93357.31;4989183;28;20515;-38
2022/07/28 02:36:58;;;;;;;8.73;7.82;;;;;;;20.10;76.37;93364.25;5008227;28;20061;-38
2022/07/28 02:39:38;;;;;;;9.25;7.88;;;;;;;20.15;75.48;93352.66;5001403;28;20101;-38
2022/07/28 02:42:09;;;;;;;11.48;7.93;;;;;;;20.14;75.17;93359.59;4989128;28;20026;-38
2022/07/28 02:44:39;;;;;;;10.45;8.65;;;;;;;19.98;76.36;93374.75;4991015;28;20101;-38
2022/07/28 02:47:07;;;;;;;12.13;8.18;;;;;;;20.06;75.69;93372.44;4989353;28;20026;-38
2022/07/28 02:49:34;;;;;;;11.80;8.75;;;;;;;19.97;76.12;93371.22;4989466;28;20054;-39
2022/07/28 02:52:01;;;;;;;10.02;8.25;;;;;;;19.83;77.12;93386.50;4988021;28;20057;-38
2022/07/28 02:54:28;;;;;;;10.27;8.60;;;;;;;19.83;77.08;93381.63;4989515;28;20058;-41
2022/07/28 02:56:56;;;;;;;12.77;9.27;;;;;;;19.58;77.66;93375.91;4989512;28;20026;-39
2022/07/28 02:59:22;;;;;;;10.80;8.32;;;;;;;19.35;79.15;93382.25;4989674;28;20023;-39
2022/07/28 03:01:48;;;;;;;9.73;8.52;;;;;;;19.32;80.08;93383.44;4990635;28;20062;-39
2022/07/28 03:04:14;;;;;;;12.77;8.95;;;;;;;19.31;81.04;93381.25;4989666;28;20064;-38
2022/07/28 03:06:40;;;;;;;11.48;8.85;;;;;;;19.34;82.24;93397.59;4990569;28;20448;-37
2022/07/28 03:09:10;;;;;;;12.77;9.48;;;;;;;19.41;82.67;93393.09;4989317;28;20030;-37
2022/07/28 03:11:35;;;;;;;12.05;9.80;;;;;;;19.40;84.11;93405.63;4990450;28;20119;-37
2022/07/28 03:14:00;;;;;;;15.52;10.40;;;;;;;19.31;85.06;93406.47;4990852;28;20111;-37
2022/07/28 03:16:26;;;;;;;10.55;8.82;;;;;;;19.52;83.83;93407.09;4989895;28;20483;-37
2022/07/28 03:18:51;;;;;;;12.70;9.57;;;;;;;19.68;83.13;93413.66;4990861;28;20038;-37
2022/07/28 03:21:17;;;;;;;12.45;9.68;;;;;;;19.74;83.09;93420.97;4987091;28;20504;-36
2022/07/28 03:23:46;;;;;;;10.77;9.40;;;;;;;19.79;82.75;93433.88;4984745;28;20606;-36
2022/07/28 03:26:16;;;;;;;10.68;9.48;;;;;;;19.84;81.89;93436.31;4988849;28;20026;-37
2022/07/28 03:28:43;;;;;;;17.33;10.55;;;;;;;19.81;82.18;93445.94;4988928;28;20061;-37
2022/07/28 03:31:10;;;;;;;13.35;10.32;;;;;;;19.67;84.04;93445.81;4990710;28;20034;-36
2022/07/28 03:33:36;;;;;;;12.73;9.70;;;;;;;19.73;83.25;93444.72;4987316;28;20109;-37
2022/07/28 03:36:05;;;;;;;12.52;9.52;;;;;;;19.68;84.01;93449.38;4999191;28;20168;-37
2022/07/28 03:38:44;;;;;;;14.63;11.10;;;;;;;19.68;84.40;93450.06;4991210;28;20054;-36
2022/07/28 03:41:10;;;;;;;11.90;9.70;;;;;;;19.59;84.84;93462.16;5009006;28;20030;-37
2022/07/28 03:43:36;;;;;;;15.60;10.80;;;;;;;19.36;85.06;93436.19;4988977;28;20027;-37
2022/07/28 03:46:02;;;;;;;11.90;9.90;;;;;;;19.46;85.21;93462.75;4989128;28;20113;-36
2022/07/28 03:48:31;;;;;;;12.35;10.13;;;;;;;19.44;85.10;93459.81;5024903;28;20101;-37
2022/07/28 03:50:57;;;;;;;11.40;9.70;;;;;;;19.36;85.70;93456.50;4977534;28;20181;-36
2022/07/28 03:53:28;;;;;;;15.90;10.65;;;;;;;19.33;86.46;93460.50;4974122;28;20042;-37
2022/07/28 03:55:54;;;;;;;16.70;10.80;;;;;;;19.29;87.96;93462.31;4974152;28;20027;-37
2022/07/28 03:58:26;;;;;;;14.35;10.48;;;;;;;19.29;87.92;93453.91;4974508;28;20033;-36
2022/07/28 04:00:52;;;;;;;12.82;10.00;;;;;;;19.41;87.39;93465.88;4974178;28;20472;-37
2022/07/28 04:03:18;;;;;;;12.82;10.00;;;;;;;19.49;86.46;93461.50;4974119;28;20031;-37
2022/07/28 04:05:44;;;;;;;15.30;10.98;;;;;;;19.50;85.58;93468.59;4974193;28;20077;-37
2022/07/28 04:08:09;;;;;;;13.07;9.73;;;;;;;19.57;86.00;93473.22;4974000;28;20436;-37
2022/07/28 04:10:35;;;;;;;15.02;9.75;;;;;;;19.56;86.04;93463.34;4973877;28;20019;-37
2022/07/28 04:13:00;;;;;;;14.60;10.75;;;;;;;19.67;86.01;93461.91;4974240;28;20037;-37
2022/07/28 04:15:27;;;;;;;19.88;11.50;;;;;;;19.73;85.45;93464.34;4973718;28;20039;-37
2022/07/28 04:17:54;;;;;;;18.67;12.75;;;;;;;19.67;87.52;93470.28;4990606;28;20035;-36
2022/07/28 04:20:21;;;;;;;16.60;11.90;;;;;;;19.76;87.16;93471.50;4993199;28;20434;-37
2022/07/28 04:22:48;;;;;;;13.68;11.38;;;;;;;19.84;86.68;93466.41;4993456;28;20026;-37
2022/07/28 04:25:16;;;;;;;12.30;10.73;;;;;;;19.84;87.28;93466.41;4993009;28;20480;-37
2022/07/28 04:27:42;;;;;;;14.07;12.00;;;;;;;19.82;87.66;93469.06;4992860;28;20104;-37
2022/07/28 04:30:12;;;;;;;16.02;12.13;;;;;;;19.96;87.12;93467.88;4993310;28;20488;-37
2022/07/28 04:32:40;;;;;;;19.90;13.07;;;;;;;20.08;86.24;93465.78;4992911;28;20026;-36
2022/07/28 04:35:07;;;;;;;16.08;12.77;;;;;;;20.28;85.01;93461.38;4992596;28;20029;-36
2022/07/28 04:37:33;;;;;;;20.50;12.13;;;;;;;20.34;84.16;93461.00;4992635;28;20050;-36
2022/07/28 04:39:59;;;;;;;15.18;11.70;;;;;;;20.35;83.74;93449.19;5006980;28;20041;-36
2022/07/28 04:42:24;;;;;;;16.67;12.30;;;;;;;20.21;85.09;93453.22;5001107;28;20038;-36
2022/07/28 04:44:50;;;;;;;16.55;11.55;;;;;;;20.14;86.54;93445.78;4993052;28;20256;-36
2022/07/28 04:47:15;;;;;;;15.65;12.00;;;;;;;20.23;86.19;93462.47;4992961;28;20027;-36
2022/07/28 04:49:41;;;;;;;18.60;12.38;;;;;;;20.25;85.75;93459.81;4992269;28;20030;-37
2022/07/28 04:52:09;;;;;;;17.75;13.23;;;;;;;20.30;85.33;93449.56;4992951;28;20041;-37
2022/07/28 04:54:36;;;;;;;15.50;12.48;;;;;;;20.36;85.19;93456.25;4992616;28;20057;-38
2022/07/28 04:57:02;;;;;;;29.38;14.50;;;;;;;20.29;85.78;93448.09;4991852;28;20738;-38
2022/07/28 04:59:28;;;;;;;18.73;13.85;;;;;;;20.36;84.46;93447.81;4992107;28;20030;-37
2022/07/28 05:01:56;;;;;;;18.00;13.52;;;;;;;20.38;84.09;93450.00;4991294;28;20405;-38
2022/07/28 05:04:22;;;;;;;16.15;12.90;;;;;;;20.32;84.35;93433.59;4992158;28;20034;-38
2022/07/28 05:06:47;;;;;;;17.50;13.77;;;;;;;20.31;86.09;93437.00;4992311;28;20118;-38
2022/07/28 05:09:12;;;;;;;20.05;13.82;;;;;;;20.28;86.04;93433.34;4992515;28;20035;-39
2022/07/28 05:11:38;;;;;;;16.25;11.98;;;;;;;20.30;85.60;93432.72;4991898;28;20515;-38
2022/07/28 05:14:03;;;;;;;15.48;13.13;;;;;;;20.37;85.48;93443.69;4991404;28;20503;-38
2022/07/28 05:16:29;;;;;;;14.40;11.48;;;;;;;20.42;86.71;93438.31;4992074;28;20053;-38
2022/07/28 05:18:54;;;;;;;17.60;12.02;;;;;;;20.42;86.12;93444.66;4992110;28;20057;-38
2022/07/28 05:21:20;;;;;;;16.08;12.13;;;;;;;20.56;86.00;93448.25;4992119;28;20042;-38
2022/07/28 05:23:45;;;;;;;15.93;12.68;;;;;;;20.59;85.86;93447.03;4991908;28;20034;-37
2022/07/28 05:26:10;;;;;;;15.10;11.77;;;;;;;20.60;85.13;93447.75;4992291;28;20492;-38
2022/07/28 05:28:36;;;;;;;15.43;11.90;;;;;;;20.56;84.42;93439.09;4992053;28;20049;-38
2022/07/28 05:31:02;;;;;;;11.98;10.73;;;;;;;20.51;84.51;93443.75;4988788;28;20031;-37
2022/07/28 05:33:27;;;;;;;18.13;12.13;;;;;;;20.50;85.52;93438.78;4990247;28;20427;-37
2022/07/28 05:35:58;;;;;;;14.55;12.00;;;;;;;20.56;85.33;93441.91;4991396;28;20034;-36
2022/07/28 05:38:24;;;;;;;19.95;12.27;;;;;;;20.55;84.86;93429.97;4992524;28;20053;-36
2022/07/28 05:40:51;;;;;;;19.55;12.38;;;;;;;20.52;84.99;93420.00;5010088;28;20529;-36
2022/07/28 05:43:17;;;;;;;13.57;11.40;;;;;;;20.49;84.72;93414.88;4995493;28;20110;-36
2022/07/28 05:45:43;;;;;;;15.80;11.27;;;;;;;20.47;84.91;93423.16;4991737;28;20113;-36
2022/07/28 05:48:08;;;;;;;14.48;11.48;;;;;;;20.43;84.98;93423.66;4989494;28;20496;-36
2022/07/28 05:50:34;;;;;;;13.05;10.35;;;;;;;20.49;84.57;93417.69;4990307;28;20026;-36
2022/07/28 05:53:00;;;;;;;13.18;11.05;;;;;;;20.49;85.48;93412.78;4987097;28;20035;-36
2022/07/28 05:55:25;;;;;;;16.58;12.38;;;;;;;20.45;85.19;93397.81;4980578;28;20108;-36
2022/07/28 05:57:53;;;;;;;13.95;12.35;;;;;;;20.55;85.92;93407.53;4990268;28;20069;-36
2022/07/28 06:00:21;;;;;;;15.32;13.50;;;;;;;20.71;83.66;93400.03;4989682;28;20515;-36
2022/07/28 06:02:47;;;;;;;;;;;;;;;20.74;83.30;93407.22;4990578;28;20030;-36
2022/07/28 06:05:16;;;;;;;17.23;12.02;;;;;;;20.63;83.17;93385.56;4982288;28;20611;-36
2022/07/28 06:07:42;;;;;;;11.32;10.15;;;;;;;20.86;83.76;93399.47;4981994;28;20034;-37
2022/07/28 06:10:09;;;;;;;15.32;11.10;;;;;;;20.80;82.47;93399.13;4987870;28;20062;-37
2022/07/28 06:12:41;;;;;;;13.20;11.20;;;;;;;20.76;82.48;93392.56;4989810;28;20026;-36
2022/07/28 06:15:15;;;;;;;13.68;11.10;;;;;;;20.74;83.00;93376.34;4997223;28;20048;-36
2022/07/28 06:17:41;;;;;;;17.55;13.30;;;;;;;20.62;85.20;93366.53;4992622;28;20339;-37
2022/07/28 06:20:08;;;;;;;14.52;12.75;;;;;;;20.72;85.37;93367.81;4983758;28;20427;-37
2022/07/28 06:22:44;;;;;;;18.38;12.13;;;;;;;20.81;83.40;93372.50;4992547;28;20408;-37
2022/07/28 06:25:17;;;;;;;16.45;12.77;;;;;;;20.87;83.61;93377.75;4982699;28;20038;-37
2022/07/28 06:27:51;;;;;;;16.45;12.02;;;;;;;20.90;85.09;93382.84;4986004;28;20049;-36
2022/07/28 06:30:17;;;;;;;12.70;11.02;;;;;;;20.72;84.32;93381.84;4989670;28;20033;-36
2022/07/28 06:32:43;;;;;;;15.93;12.57;;;;;;;20.68;85.71;93381.59;4993107;28;20471;-36
2022/07/28 06:35:10;;;;;;;15.15;13.43;;;;;;;20.72;86.28;93387.47;4992056;28;20038;-37
2022/07/28 06:37:36;;;;;;;15.13;13.52;;;;;;;20.75;86.21;93383.41;4989119;28;20548;-37
2022/07/28 06:40:02;;;;;;;14.35;11.55;;;;;;;20.86;84.85;93382.63;4993357;28;20065;-37
2022/07/28 06:42:29;;;;;;;15.32;12.32;;;;;;;20.92;83.53;93390.66;5004200;28;20062;-37
2022/07/28 06:44:54;;;;;;;12.35;11.07;;;;;;;21.11;83.85;93391.03;4987839;28;20030;-37
2022/07/28 06:47:20;;;;;;;14.20;11.75;;;;;;;21.16;83.63;93382.84;4983479;28;20476;-37
2022/07/28 06:49:45;;;;;;;14.93;13.23;;;;;;;21.19;84.62;93379.53;4987780;28;20484;-37
2022/07/28 06:52:11;;;;;;;14.25;12.23;;;;;;;21.42;84.37;93384.25;4980780;28;20034;-37
2022/07/28 06:54:37;;;;;;;14.30;12.80;;;;;;;21.63;84.06;93393.13;4980902;28;20089;-38
2022/07/28 06:57:03;;;;;;;14.20;12.52;;;;;;;21.86;83.89;93390.13;4988349;28;20045;-38
2022/07/28 06:59:28;;;;;;;14.55;13.00;;;;;;;22.14;82.21;93390.81;4986382;28;20038;-38
2022/07/28 07:01:54;;;;;;;14.07;11.68;;;;;;;22.37;80.65;93395.50;4980551;28;20030;-38
2022/07/28 07:04:20;;;;;;;13.02;11.32;;;;;;;22.38;77.91;93399.75;4979944;28;20038;-38
2022/07/28 07:06:46;;;;;;;17.38;10.98;;;;;;;22.57;78.26;93399.28;4981298;28;20030;-38
2022/07/28 07:09:11;;;;;;;14.27;11.48;;;;;;;22.74;77.17;93410.00;4982147;28;20031;-38
2022/07/28 07:11:37;;;;;;;14.80;11.70;;;;;;;22.79;76.50;93410.91;4987677;28;20558;-38
2022/07/28 07:14:02;;;;;;;15.95;12.10;;;;;;;23.01;76.13;93415.53;4978599;28;20251;-38
2022/07/28 07:16:28;;;;;;;11.90;10.70;;;;;;;23.18;76.22;93417.00;4979357;28;20041;-38
2022/07/28 07:18:54;;;;;;;13.25;10.93;;;;;;;23.34;74.43;93420.63;4979564;28;20110;-38
2022/07/28 07:21:20;;;;;;;12.88;10.60;;;;;;;23.45;74.26;93410.53;4975856;28;20037;-39
2022/07/28 07:23:46;;;;;;;11.57;10.10;;;;;;;23.69;70.74;93432.09;4985849;28;20034;-38
2022/07/28 07:26:12;;;;;;;10.48;9.38;;;;;;;23.75;69.60;93418.28;4982234;28;20082;-38
2022/07/28 07:41:13;;;;;;;15.05;10.73;;;;;;;24.86;65.32;93420.25;5124834;27;20618;-53
2022/07/28 07:43:39;;;;;;;11.73;10.48;;;;;;;24.81;65.35;93427.84;5117986;27;20447;-48
2022/07/28 07:46:05;;;;;;;12.70;9.88;;;;;;;24.73;65.81;93424.63;5123663;28;20099;-51
2022/07/28 07:48:31;;;;;;;11.93;9.95;;;;;;;24.89;64.77;93429.53;5117164;27;20028;-48
2022/07/28 07:50:56;;;;;;;11.15;9.27;;;;;;;24.88;65.07;93417.53;5105244;28;20035;-48
2022/07/28 07:53:23;;;;;;;20.25;10.25;;;;;;;25.09;65.85;93431.06;5116036;28;20106;-51
2022/07/28 07:55:51;;;;;;;10.05;9.05;;;;;;;25.16;64.29;93429.22;5124494;27;20059;-49
2022/07/28 07:58:17;;;;;;;12.10;9.98;;;;;;;25.37;64.58;93432.19;5121590;27;20027;-51
2022/07/28 08:00:42;;;;;;;10.88;9.75;;;;;;;25.46;62.42;93414.19;5113266;28;20076;-52
2022/07/28 08:03:08;;;;;;;11.75;10.00;;;;;;;25.72;61.69;93439.91;5115002;28;20065;-54
2022/07/28 08:05:33;;;;;;;12.60;9.80;;;;;;;26.25;60.38;93436.91;5108864;28;20492;-50
2022/07/28 08:07:59;;;;;;;11.90;9.82;;;;;;;26.26;59.42;93430.63;5110553;28;20122;-50
2022/07/28 08:10:24;;;;;;;11.35;10.25;;;;;;;26.31;60.43;93431.50;5111498;27;20472;-50
2022/07/28 08:12:50;;;;;;;10.45;9.45;;;;;;;26.59;58.01;93414.75;5105840;27;20489;-54
2022/07/28 08:15:16;;;;;;;10.48;9.38;;;;;;;27.08;59.13;93434.84;5105766;28;20459;-47
2022/07/28 08:17:41;;;;;;;12.65;8.90;;;;;;;27.32;54.61;93444.13;5120208;28;20487;-45
2022/07/28 08:20:07;;;;;;;10.30;9.30;;;;;;;27.34;57.37;93451.97;5126247;27;20029;-45
2022/07/28 08:22:33;;;;;;;13.75;9.85;;;;;;;27.23;54.73;93456.59;5126160;27;20076;-43
2022/07/28 08:25:00;;;;;;;14.15;12.70;;;;;;;27.04;55.98;93454.56;5126166;27;20152;-43
2022/07/28 08:27:26;;;;;;;12.47;11.17;;;;;;;26.74;54.61;93439.38;5126260;27;20407;-46
2022/07/28 08:29:52;;;;;;;9.82;8.82;;;;;;;26.47;54.62;93451.88;5125819;27;20018;-47
2022/07/28 08:32:17;;;;;;;9.88;8.60;;;;;;;26.35;54.26;93450.72;5125956;27;20031;-44
2022/07/28 08:34:43;;;;;;;10.35;9.15;;;;;;;26.07;56.73;93451.13;5121594;27;20035;-44
2022/07/28 08:37:08;;;;;;;9.80;8.70;;;;;;;26.12;56.50;93458.41;5121827;27;20058;-48
2022/07/28 08:39:35;;;;;;;9.32;8.40;;;;;;;26.18;56.05;93466.41;5125351;27;20082;-48
2022/07/28 08:42:12;;;;;;;9.50;7.72;;;;;;;26.09;59.18;93442.75;5105949;27;20411;-44
2022/07/28 08:45:13;;;;;;;10.18;8.95;;;;;;;26.89;56.88;93467.53;5107161;28;20032;-45
2022/07/28 08:47:42;;;;;;;9.18;8.18;;;;;;;27.39;56.41;93471.31;5068523;28;20103;-45
2022/07/28 08:50:09;;;;;;;8.38;7.43;;;;;;;27.54;52.62;93472.50;5104043;28;20038;-45
2022/07/28 08:52:35;;;;;;;9.90;7.18;;;;;;;27.77;52.91;93477.44;5111847;28;20096;-46
2022/07/28 08:55:05;;;;;;;10.10;6.85;;;;;;;28.16;49.97;93482.19;5105384;28;20118;-45
2022/07/28 08:57:34;;;;;;;9.63;8.32;;;;;;;28.80;47.21;93486.88;5088094;28;20036;-46
2022/07/28 09:00:00;;;;;;;6.90;6.20;;;;;;;29.28;47.49;93475.34;5089856;28;20111;-47
2022/07/28 09:02:27;;;;;;;7.47;5.93;;;;;;;29.44;47.76;93482.13;5103989;28;20054;-45
2022/07/28 09:04:57;;;;;;;7.28;6.57;;;;;;;30.29;47.83;93487.66;5099356;28;20243;-46
2022/07/28 09:07:23;;;;;;;6.22;5.63;;;;;;;30.65;45.16;93479.16;5109997;28;20075;-45
2022/07/28 09:09:49;;;;;;;8.60;6.88;;;;;;;30.47;47.51;93493.75;5108897;28;20039;-45
2022/07/28 09:12:15;;;;;;;8.05;7.22;;;;;;;30.14;47.36;93488.78;5096360;28;20117;-47
2022/07/28 09:14:41;;;;;;;7.90;6.60;;;;;;;29.87;47.52;93486.72;5086109;28;20032;-45
2022/07/28 09:17:06;;;;;;;9.07;7.72;;;;;;;29.67;49.15;93492.63;5095981;28;20103;-46
2022/07/28 09:19:32;;;;;;;9.18;8.15;;;;;;;29.59;50.26;93486.03;5090869;28;20032;-47
2022/07/28 09:21:58;;;;;;;11.02;7.20;;;;;;;29.67;48.92;93491.94;5091357;28;20031;-47
2022/07/28 09:24:39;;;;;;;8.35;7.55;;;;;;;29.33;48.05;93480.44;5090621;28;20035;-48
2022/07/28 09:27:09;;;;;;;7.55;6.65;;;;;;;29.88;49.02;93493.88;5091163;28;20032;-45
2022/07/28 09:29:37;;;;;;;8.88;7.55;;;;;;;30.02;47.91;93484.94;5090484;28;20103;-45
2022/07/28 09:32:04;;;;;;;9.77;7.72;;;;;;;29.87;46.07;93478.91;5091749;28;20080;-46
2022/07/28 09:34:46;;;;;;;9.05;8.25;;;;;;;29.69;48.17;93481.31;5097052;28;20031;-48
2022/07/28 09:37:21;;;;;;;10.32;7.45;;;;;;;30.05;48.38;93484.28;5102233;28;20039;-46
2022/07/28 09:39:48;;;;;;;7.28;6.68;;;;;;;30.46;46.20;93477.34;5094792;28;20096;-47
2022/07/28 09:42:14;;;;;;;7.63;6.90;;;;;;;30.80;46.10;93472.31;5090873;28;20034;-46
2022/07/28 09:44:40;;;;;;;8.95;6.90;;;;;;;31.14;43.99;93472.25;5108133;28;20031;-46
2022/07/28 09:47:23;;;;;;;8.05;6.80;;;;;;;31.16;43.73;93470.19;5103340;28;20028;-47
2022/07/28 09:49:50;;;;;;;7.90;6.63;;;;;;;30.82;45.11;93474.50;5090960;28;20639;-45
2022/07/28 09:52:31;;;;;;;9.68;7.68;;;;;;;31.02;45.97;93477.72;5091257;28;20716;-50
2022/07/28 09:55:00;;;;;;;7.60;6.40;;;;;;;31.43;43.71;93469.22;5108867;28;20039;-44
2022/07/28 09:57:27;;;;;;;11.98;7.25;;;;;;;31.38;43.91;93475.53;5108599;28;20081;-45
2022/07/28 09:59:53;;;;;;;9.13;6.80;;;;;;;32.26;43.33;93481.19;5107442;28;20035;-47
2022/07/28 10:02:32;;;;;;;7.22;6.57;;;;;;;32.83;39.21;93472.63;5106401;28;20043;-48
2022/07/28 10:05:01;;;;;;;7.65;6.95;;;;;;;33.20;40.46;93484.50;5108507;28;20038;-46
2022/07/28 10:07:28;;;;;;;8.90;7.43;;;;;;;33.26;39.02;93476.69;5104138;28;20051;-46
2022/07/28 10:10:02;;;;;;;7.10;6.40;;;;;;;32.39;38.88;93474.22;5095126;28;20035;-45
2022/07/28 10:12:30;;;;;;;6.72;6.10;;;;;;;31.77;39.63;93483.31;5087182;28;20594;-46
2022/07/28 10:14:58;;;;;;;8.77;6.88;;;;;;;30.96;43.63;93486.91;5089373;28;20027;-45
2022/07/28 10:17:29;;;;;;;8.02;6.95;;;;;;;30.28;43.00;93485.47;5096474;28;20063;-45
2022/07/28 10:20:01;;;;;;;7.65;6.93;;;;;;;29.92;43.94;93483.31;5087742;28;20524;-48
2022/07/28 10:22:31;;;;;;;7.47;6.78;;;;;;;29.33;46.40;93466.22;5106539;28;20019;-46
2022/07/28 10:24:57;;;;;;;8.45;7.55;;;;;;;28.83;46.15;93474.16;5107920;27;20034;-47
2022/07/28 10:27:24;;;;;;;8.90;6.93;;;;;;;28.54;47.91;93488.97;5088357;28;20032;-46
2022/07/28 10:29:55;;;;;;;8.55;7.65;;;;;;;28.14;50.09;93477.19;5089922;28;20031;-45
2022/07/28 10:32:21;;;;;;;8.13;7.22;;;;;;;27.78;51.05;93482.47;5107790;28;20046;-44
2022/07/28 10:34:51;;;;;;;7.60;6.88;;;;;;;27.67;52.23;93482.81;5103405;28;20027;-45
2022/07/28 10:37:21;;;;;;;8.55;7.75;;;;;;;27.42;52.15;93483.44;5086181;28;20051;-44
2022/07/28 10:39:59;;;;;;;8.00;6.43;;;;;;;27.33;53.15;93481.72;5090759;28;20047;-46
2022/07/28 10:42:25;;;;;;;11.27;8.13;;;;;;;27.01;53.78;93492.69;5100909;28;20089;-44
2022/07/28 10:44:52;;;;;;;10.70;8.43;;;;;;;26.75;55.34;93488.97;5097107;28;20141;-44
2022/07/28 10:47:18;;;;;;;8.45;7.47;;;;;;;26.48;56.84;93492.97;5099404;28;20041;-45
2022/07/28 10:49:44;;;;;;;8.48;7.55;;;;;;;26.30;57.49;93495.13;5103660;28;20028;-45
2022/07/28 10:52:09;;;;;;;9.13;8.18;;;;;;;26.14;58.18;93498.09;5103635;28;20638;-45
2022/07/28 10:54:46;;;;;;;9.20;8.00;;;;;;;25.95;59.47;93495.22;5094840;28;20100;-43
2022/07/28 10:57:11;;;;;;;10.27;8.73;;;;;;;25.69;61.11;93480.06;5086883;28;20027;-43
2022/07/28 10:59:56;;;;;;;8.77;7.88;;;;;;;25.70;61.74;93499.22;5089900;28;20035;-47
2022/07/28 11:02:44;;;;;;;9.65;7.78;;;;;;;25.22;61.49;93509.31;5107123;27;20035;-43
2022/07/28 11:05:25;;;;;;;;;;;;;;;24.78;61.42;93502.53;5107919;28;20139;-43
2022/07/28 11:07:50;;;;;;;13.48;11.07;;;;;;;24.71;61.83;93497.25;5107154;28;19943;-43
2022/07/28 11:10:17;;;;;;;14.68;10.70;;;;;;;24.49;64.97;93488.56;5102226;28;20064;-44
2022/07/28 11:13:21;;;;;;;12.07;10.75;;;;;;;24.54;66.48;93476.06;5086851;28;20039;-44
2022/07/28 11:15:46;;;;;;;10.38;9.05;;;;;;;24.65;65.61;93468.75;5104950;28;20040;-43
2022/07/28 11:18:12;;;;;;;9.45;8.55;;;;;;;24.75;64.96;93447.34;5108763;28;20035;-43
2022/07/28 11:20:59;;;;;;;10.35;9.32;;;;;;;24.77;65.71;93455.19;5107908;28;20451;-43
2022/07/28 11:23:36;;;;;;;10.88;9.77;;;;;;;25.50;67.65;93448.28;5108913;28;20168;-43
2022/07/28 11:26:20;;;;;;;11.07;10.00;;;;;;;26.64;63.14;93456.00;5109248;28;20073;-43
2022/07/28 11:29:07;;;;;;;12.50;8.30;;;;;;;27.81;60.01;93457.72;5109200;28;20412;-45
2022/07/28 11:31:47;;;;;;;8.27;7.43;;;;;;;28.49;54.17;93439.84;5108998;28;20097;-45
2022/07/28 11:34:23;;;;;;;9.48;8.18;;;;;;;28.93;57.52;93442.44;5102483;28;20063;-44
2022/07/28 11:37:11;;;;;;;8.77;7.85;;;;;;;29.37;53.39;93437.16;5104286;28;20028;-42
2022/07/28 11:39:38;;;;;;;8.30;7.45;;;;;;;30.00;52.44;93437.19;5100002;28;20467;-42
2022/07/28 11:42:29;;;;;;;8.88;7.97;;;;;;;30.23;51.31;93441.25;5098060;28;20063;-44
2022/07/28 11:44:56;;;;;;;9.88;7.90;;;;;;;30.32;50.34;93435.03;5097034;28;20561;-42